Lillyville, Illinois
Current Conditions -  °F | °C
As of 6:15 AM on Monday 20 Oct 2014 (Local Time) from K1H2 Reporting Station
Overcast Overcast  
Wind Chill: 51°   Ceiling: 8500
Heat Index: 51°   Visibility: 10mi
Dew Point: 46°   Wind: 5mph
Humidity: 83%   Direction: 180°S
Pressure: 29.95"   Gusts: NA
Location:  39.1183°N, 88.6059°W
Report Text: K1H2 201115Z AUTO 18004KT 10SM BKN085 OVC110 10/08 A2995 RMK AO2 T01030075
Loading
Personal Weather Stations






























Interactive Weather Map
Tropical Storm Tracking
New forecast layout! Learn more

10-Day Weather Forecast

Advertisements
Track Severe Weather on mobile